createdAt,value
2017-11-25T00:00:03.287Z,1008.88
2017-11-25T00:01:03.284Z,1008.86
2017-11-25T00:02:03.287Z,1008.90
2017-11-25T00:03:03.278Z,1008.89
2017-11-25T00:04:03.279Z,1008.89
2017-11-25T00:05:03.278Z,1008.89
2017-11-25T00:06:03.275Z,1008.92
2017-11-25T00:07:03.324Z,1008.90
2017-11-25T00:08:03.267Z,1008.91
2017-11-25T00:09:03.264Z,1008.93
2017-11-25T00:10:03.259Z,1008.86
2017-11-25T00:11:03.258Z,1008.79
2017-11-25T00:12:03.294Z,1008.83
2017-11-25T00:13:03.252Z,1008.87
2017-11-25T00:14:03.254Z,1008.82
2017-11-25T00:15:03.246Z,1008.82
2017-11-25T00:16:03.246Z,1008.82
2017-11-25T00:17:03.242Z,1008.83
2017-11-25T00:18:03.247Z,1008.84
2017-11-25T00:19:03.238Z,1008.82
2017-11-25T00:20:03.235Z,1008.93
2017-11-25T00:21:03.236Z,1008.88
2017-11-25T00:22:03.235Z,1008.86
2017-11-25T00:23:03.236Z,1008.82
2017-11-25T00:24:03.228Z,1008.81
2017-11-25T00:25:03.235Z,1008.79
2017-11-25T00:26:03.226Z,1008.75
2017-11-25T00:27:03.218Z,1008.70
2017-11-25T00:28:03.220Z,1008.69
2017-11-25T00:29:03.211Z,1008.68
2017-11-25T00:30:03.209Z,1008.70
2017-11-25T00:31:03.216Z,1008.64
2017-11-25T00:32:03.209Z,1008.64
2017-11-25T00:33:03.206Z,1008.64
2017-11-25T00:34:03.203Z,1008.64
2017-11-25T00:35:03.201Z,1008.64
2017-11-25T00:36:03.203Z,1008.67
2017-11-25T00:37:03.202Z,1008.67
2017-11-25T00:38:03.265Z,1008.70
2017-11-25T00:39:03.194Z,1008.71
2017-11-25T00:40:03.218Z,1008.72
2017-11-25T00:41:03.186Z,1008.70
2017-11-25T00:42:03.191Z,1008.70
2017-11-25T00:43:03.183Z,1008.72
2017-11-25T00:44:03.187Z,1008.72
2017-11-25T00:45:03.182Z,1008.74
2017-11-25T00:46:03.177Z,1008.78
2017-11-25T00:47:03.174Z,1008.78
2017-11-25T00:48:03.173Z,1008.73
2017-11-25T00:49:03.173Z,1008.76
2017-11-25T00:50:03.173Z,1008.71
2017-11-25T00:51:03.167Z,1008.69
2017-11-25T00:52:03.160Z,1008.70
2017-11-25T00:53:03.164Z,1008.67
2017-11-25T00:54:03.162Z,1008.68
2017-11-25T00:55:03.163Z,1008.68
2017-11-25T00:56:03.153Z,1008.71
2017-11-25T00:57:03.154Z,1008.69
2017-11-25T00:58:03.149Z,1008.74
2017-11-25T00:59:03.144Z,1008.73
2017-11-25T01:00:03.142Z,1008.75
2017-11-25T01:01:03.143Z,1008.76
2017-11-25T01:02:03.138Z,1008.74
2017-11-25T01:03:03.138Z,1008.74
2017-11-25T01:04:03.134Z,1008.75
2017-11-25T01:05:03.145Z,1008.77
2017-11-25T01:06:03.130Z,1008.73
2017-11-25T01:07:03.133Z,1008.71
2017-11-25T01:08:03.123Z,1008.71
2017-11-25T01:09:03.128Z,1008.62
2017-11-25T01:10:03.123Z,1008.61
2017-11-25T01:11:03.119Z,1008.62
2017-11-25T01:12:03.119Z,1008.62
2017-11-25T01:13:03.111Z,1008.57
2017-11-25T01:14:03.110Z,1008.51
2017-11-25T01:15:03.110Z,1008.50
2017-11-25T01:16:03.112Z,1008.45
2017-11-25T01:17:03.112Z,1008.46
2017-11-25T01:18:03.111Z,1008.45
2017-11-25T01:19:03.104Z,1008.46
2017-11-25T01:20:03.101Z,1008.43
2017-11-25T01:21:03.095Z,1008.41
2017-11-25T01:22:03.113Z,1008.43
2017-11-25T01:23:03.096Z,1008.42
2017-11-25T01:24:03.086Z,1008.41
2017-11-25T01:25:03.089Z,1008.40
2017-11-25T01:26:03.089Z,1008.43
2017-11-25T01:27:03.089Z,1008.44
2017-11-25T01:28:03.081Z,1008.39
2017-11-25T01:29:03.085Z,1008.50
2017-11-25T01:30:03.080Z,1008.45
2017-11-25T01:31:03.073Z,1008.46
2017-11-25T01:32:03.072Z,1008.43
2017-11-25T01:33:03.077Z,1008.46
2017-11-25T01:34:03.068Z,1008.47
2017-11-25T01:35:03.074Z,1008.44
2017-11-25T01:36:03.095Z,1008.45
2017-11-25T01:37:03.064Z,1008.40
2017-11-25T01:38:03.060Z,1008.39
2017-11-25T01:39:03.056Z,1008.35
2017-11-25T01:40:03.094Z,1008.37
2017-11-25T01:41:03.059Z,1008.34
2017-11-25T01:42:03.055Z,1008.31
2017-11-25T01:43:03.049Z,1008.31
2017-11-25T01:44:03.051Z,1008.32
2017-11-25T01:45:03.058Z,1008.34
2017-11-25T01:46:03.056Z,1008.37
2017-11-25T01:47:03.048Z,1008.34
2017-11-25T01:48:03.049Z,1008.35
2017-11-25T01:49:03.034Z,1008.29
2017-11-25T01:50:03.053Z,1008.27
2017-11-25T01:51:03.034Z,1008.23
2017-11-25T01:52:03.037Z,1008.23
2017-11-25T01:53:03.039Z,1008.20
2017-11-25T01:54:03.030Z,1008.20
2017-11-25T01:55:03.027Z,1008.20
2017-11-25T01:56:03.024Z,1008.20
2017-11-25T01:57:03.017Z,1008.19
2017-11-25T01:58:03.028Z,1008.16
2017-11-25T01:59:03.014Z,1008.13
2017-11-25T02:00:03.012Z,1008.19
2017-11-25T02:01:03.013Z,1008.17
2017-11-25T02:02:03.008Z,1008.10
2017-11-25T02:03:03.011Z,1008.13
2017-11-25T02:04:03.004Z,1008.09
2017-11-25T02:05:03.002Z,1008.11
2017-11-25T02:06:02.998Z,1008.09
2017-11-25T02:07:03.005Z,1008.11
2017-11-25T02:08:02.997Z,1008.15
2017-11-25T02:09:03.005Z,1008.16
2017-11-25T02:10:02.993Z,1008.18
2017-11-25T02:11:02.992Z,1008.18
2017-11-25T02:12:02.988Z,1008.16
2017-11-25T02:13:02.989Z,1008.16
2017-11-25T02:14:02.984Z,1008.14
2017-11-25T02:15:02.988Z,1008.14
2017-11-25T02:16:02.980Z,1008.12
2017-11-25T02:17:02.975Z,1008.14
2017-11-25T02:18:02.973Z,1008.18
2017-11-25T02:19:02.972Z,1008.13
2017-11-25T02:20:02.972Z,1008.11
2017-11-25T02:21:02.971Z,1008.06
2017-11-25T02:22:02.964Z,1008.07
2017-11-25T02:23:02.970Z,1008.02
2017-11-25T02:24:02.964Z,1008.01
2017-11-25T02:25:02.967Z,1007.98
2017-11-25T02:26:02.956Z,1007.96
2017-11-25T02:27:02.970Z,1007.94
2017-11-25T02:28:02.955Z,1007.92
2017-11-25T02:29:02.955Z,1007.90
2017-11-25T02:30:02.951Z,1007.94
2017-11-25T02:31:02.957Z,1007.91
2017-11-25T02:32:02.945Z,1007.88
2017-11-25T02:33:02.951Z,1007.97
2017-11-25T02:34:02.976Z,1007.93
2017-11-25T02:35:02.942Z,1007.91
2017-11-25T02:36:02.940Z,1007.88
2017-11-25T02:37:02.935Z,1007.89
2017-11-25T02:38:02.933Z,1007.91
2017-11-25T02:39:02.930Z,1007.93
2017-11-25T02:40:02.941Z,1007.91
2017-11-25T02:41:02.931Z,1007.90
2017-11-25T02:42:02.924Z,1007.92
2017-11-25T02:43:02.926Z,1007.91
2017-11-25T02:44:02.919Z,1007.89
2017-11-25T02:45:02.919Z,1007.91
2017-11-25T02:46:02.914Z,1007.92
2017-11-25T02:47:02.915Z,1007.88
2017-11-25T02:48:02.910Z,1007.87
2017-11-25T02:49:02.914Z,1007.95
2017-11-25T02:50:02.907Z,1007.93
2017-11-25T02:51:02.909Z,1007.95
2017-11-25T02:52:02.905Z,1007.99
2017-11-25T02:53:02.901Z,1007.97
2017-11-25T02:54:02.904Z,1007.92
2017-11-25T02:55:02.894Z,1007.89
2017-11-25T02:56:02.899Z,1007.88
2017-11-25T02:57:02.895Z,1007.85
2017-11-25T02:58:02.889Z,1007.83
2017-11-25T02:59:02.886Z,1007.80
2017-11-25T03:00:02.889Z,1007.80
2017-11-25T03:01:02.891Z,1007.79
2017-11-25T03:02:02.883Z,1007.76
2017-11-25T03:03:02.893Z,1007.78
2017-11-25T03:04:02.877Z,1007.77
2017-11-25T03:05:02.876Z,1007.77
2017-11-25T03:06:02.873Z,1007.78
2017-11-25T03:07:02.872Z,1007.81
2017-11-25T03:08:02.871Z,1007.76
2017-11-25T03:09:02.875Z,1007.80
2017-11-25T03:10:02.866Z,1007.74
2017-11-25T03:11:02.859Z,1007.74
2017-11-25T03:12:02.863Z,1007.73
2017-11-25T03:13:02.863Z,1007.72
2017-11-25T03:14:02.854Z,1007.72
2017-11-25T03:15:02.865Z,1007.65
2017-11-25T03:16:02.853Z,1007.60
2017-11-25T03:17:02.853Z,1007.61
2017-11-25T03:18:02.845Z,1007.55
2017-11-25T03:19:02.849Z,1007.48
2017-11-25T03:20:02.851Z,1007.49
2017-11-25T03:21:02.845Z,1007.40
2017-11-25T03:22:02.851Z,1007.41
2017-11-25T03:23:02.839Z,1007.43
2017-11-25T03:24:02.847Z,1007.39
2017-11-25T03:25:02.838Z,1007.41
2017-11-25T03:26:02.831Z,1007.43
2017-11-25T03:27:02.832Z,1007.41
2017-11-25T03:28:02.825Z,1007.40
2017-11-25T03:29:02.825Z,1007.36
2017-11-25T03:30:02.823Z,1007.41
2017-11-25T03:31:02.821Z,1007.35
2017-11-25T03:32:02.819Z,1007.28
2017-11-25T03:33:02.813Z,1007.35
2017-11-25T03:34:02.823Z,1007.31
2017-11-25T03:35:02.811Z,1007.31
2017-11-25T03:36:02.812Z,1007.31
2017-11-25T03:37:02.813Z,1007.29
2017-11-25T03:38:02.837Z,1007.27
2017-11-25T03:39:02.803Z,1007.25
2017-11-25T03:40:02.803Z,1007.29
2017-11-25T03:41:02.804Z,1007.28
2017-11-25T03:42:02.796Z,1007.26
2017-11-25T03:43:02.794Z,1007.26
2017-11-25T03:44:02.796Z,1007.27
2017-11-25T03:45:02.790Z,1007.25
2017-11-25T03:46:02.787Z,1007.24
2017-11-25T03:47:02.791Z,1007.20
2017-11-25T03:48:02.790Z,1007.17
2017-11-25T03:49:02.778Z,1007.19
2017-11-25T03:50:02.782Z,1007.13
2017-11-25T03:51:02.779Z,1007.09
2017-11-25T03:52:02.777Z,1007.13
2017-11-25T03:53:02.773Z,1007.05
2017-11-25T03:54:02.771Z,1007.01
2017-11-25T03:55:02.776Z,1007.04
2017-11-25T03:56:02.772Z,1007.02
2017-11-25T03:57:02.765Z,1007.01
2017-11-25T03:58:02.768Z,1007.00
2017-11-25T03:59:02.761Z,1006.98
2017-11-25T04:00:02.760Z,1006.97
2017-11-25T04:01:02.754Z,1007.00
2017-11-25T04:02:02.754Z,1007.02
2017-11-25T04:03:02.762Z,1007.05
2017-11-25T04:04:02.755Z,1007.05
2017-11-25T04:05:02.747Z,1007.03
2017-11-25T04:06:02.774Z,1007.00
2017-11-25T04:07:02.756Z,1007.01
2017-11-25T04:08:02.742Z,1006.98
2017-11-25T04:09:02.743Z,1006.98
2017-11-25T04:10:02.741Z,1006.96
2017-11-25T04:11:02.741Z,1006.91
2017-11-25T04:12:02.738Z,1006.90
2017-11-25T04:13:02.733Z,1006.87
2017-11-25T04:14:02.726Z,1006.89
2017-11-25T04:15:03.439Z,1006.94
2017-11-25T04:16:02.742Z,1006.94
2017-11-25T04:17:02.723Z,1006.96
2017-11-25T04:18:02.718Z,1006.94
2017-11-25T04:19:02.720Z,1006.96
2017-11-25T04:20:02.713Z,1006.92
2017-11-25T04:21:02.713Z,1006.86
2017-11-25T04:22:02.710Z,1006.85
2017-11-25T04:23:02.710Z,1006.83
2017-11-25T04:24:02.704Z,1006.81
2017-11-25T04:25:02.705Z,1006.73
2017-11-25T04:26:02.700Z,1006.71
2017-11-25T04:27:02.704Z,1006.74
2017-11-25T04:28:02.702Z,1006.69
2017-11-25T04:29:02.695Z,1006.72
2017-11-25T04:30:02.695Z,1006.67
2017-11-25T04:31:02.693Z,1006.71
2017-11-25T04:32:02.687Z,1006.73
2017-11-25T04:33:02.686Z,1006.74
2017-11-25T04:34:02.687Z,1006.73
2017-11-25T04:35:02.681Z,1006.68
2017-11-25T04:36:02.682Z,1006.75
2017-11-25T04:37:02.677Z,1006.71
2017-11-25T04:38:02.680Z,1006.75
2017-11-25T04:39:02.680Z,1006.78
2017-11-25T04:40:02.673Z,1006.77
2017-11-25T04:41:02.674Z,1006.80
2017-11-25T04:42:02.670Z,1006.82
2017-11-25T04:43:02.674Z,1006.79
2017-11-25T04:44:02.669Z,1006.81
2017-11-25T04:45:02.665Z,1006.82
2017-11-25T04:46:02.655Z,1006.83
2017-11-25T04:47:02.657Z,1006.78
2017-11-25T04:48:02.657Z,1006.80
2017-11-25T04:49:02.653Z,1006.74
2017-11-25T04:50:02.655Z,1006.73
2017-11-25T04:51:02.650Z,1006.70
2017-11-25T04:52:02.644Z,1006.68
2017-11-25T04:53:02.646Z,1006.71
2017-11-25T04:54:02.645Z,1006.62
2017-11-25T04:55:02.638Z,1006.57
2017-11-25T04:56:02.644Z,1006.56
2017-11-25T04:57:02.638Z,1006.60
2017-11-25T04:58:02.631Z,1006.54
2017-11-25T04:59:02.634Z,1006.55
2017-11-25T05:00:02.634Z,1006.52
2017-11-25T05:01:02.630Z,1006.49
2017-11-25T05:02:02.627Z,1006.50
2017-11-25T05:03:02.627Z,1006.44
2017-11-25T05:04:02.617Z,1006.50
2017-11-25T05:05:02.626Z,1006.40
2017-11-25T05:06:02.616Z,1006.38
2017-11-25T05:07:02.611Z,1006.34
2017-11-25T05:08:02.611Z,1006.34
2017-11-25T05:09:02.610Z,1006.30
2017-11-25T05:10:02.609Z,1006.27
2017-11-25T05:11:02.603Z,1006.18
2017-11-25T05:12:02.602Z,1006.14
2017-11-25T05:13:02.598Z,1006.12
2017-11-25T05:14:02.610Z,1006.16
2017-11-25T05:15:02.604Z,1006.08
2017-11-25T05:16:02.593Z,1006.03
2017-11-25T05:17:02.601Z,1005.97
2017-11-25T05:18:02.588Z,1005.94
2017-11-25T05:19:02.587Z,1006.01
2017-11-25T05:20:02.587Z,1006.01
2017-11-25T05:21:02.585Z,1006.05
2017-11-25T05:22:02.579Z,1006.01
2017-11-25T05:23:02.580Z,1005.99
2017-11-25T05:24:02.581Z,1005.94
2017-11-25T05:25:02.578Z,1005.91
2017-11-25T05:26:02.570Z,1005.93
2017-11-25T05:27:02.570Z,1005.90
2017-11-25T05:28:02.573Z,1005.86
2017-11-25T05:29:02.563Z,1005.85
2017-11-25T05:30:02.564Z,1005.82
2017-11-25T05:31:02.564Z,1005.84
2017-11-25T05:32:02.564Z,1005.83
2017-11-25T05:33:02.557Z,1005.87
2017-11-25T05:34:02.555Z,1005.87
2017-11-25T05:35:02.555Z,1005.89
2017-11-25T05:36:02.555Z,1005.90
2017-11-25T05:37:02.549Z,1005.87
2017-11-25T05:38:02.544Z,1005.88
2017-11-25T05:39:02.544Z,1005.85
2017-11-25T05:40:02.540Z,1005.85
2017-11-25T05:41:02.541Z,1005.79
2017-11-25T05:42:02.536Z,1005.82
2017-11-25T05:43:02.533Z,1005.80
2017-11-25T05:44:02.536Z,1005.82
2017-11-25T05:45:02.541Z,1005.79
2017-11-25T05:46:02.529Z,1005.83
2017-11-25T05:47:02.525Z,1005.85
2017-11-25T05:48:02.529Z,1005.84
2017-11-25T05:49:02.524Z,1005.82
2017-11-25T05:50:02.519Z,1005.81
2017-11-25T05:51:02.521Z,1005.81
2017-11-25T05:52:02.521Z,1005.76
2017-11-25T05:53:02.515Z,1005.76
2017-11-25T05:54:02.515Z,1005.72
2017-11-25T05:55:02.510Z,1005.72
2017-11-25T05:56:02.513Z,1005.74
2017-11-25T05:57:02.503Z,1005.73
2017-11-25T05:58:02.502Z,1005.75
2017-11-25T05:59:02.502Z,1005.73
2017-11-25T06:00:02.504Z,1005.74
2017-11-25T06:01:02.506Z,1005.80
2017-11-25T06:02:02.494Z,1005.80
2017-11-25T06:03:02.519Z,1005.81
2017-11-25T06:04:02.493Z,1005.80
2017-11-25T06:05:02.489Z,1005.78
2017-11-25T06:06:02.490Z,1005.80
2017-11-25T06:07:02.484Z,1005.80
2017-11-25T06:08:02.517Z,1005.83
2017-11-25T06:09:02.486Z,1005.81
2017-11-25T06:10:02.478Z,1005.82
2017-11-25T06:11:02.480Z,1005.87
2017-11-25T06:12:02.479Z,1005.79
2017-11-25T06:13:02.470Z,1005.79
2017-11-25T06:14:02.480Z,1005.79
2017-11-25T06:15:02.466Z,1005.78
2017-11-25T06:16:02.464Z,1005.78
2017-11-25T06:17:02.467Z,1005.75
2017-11-25T06:18:02.480Z,1005.78
2017-11-25T06:19:02.456Z,1005.86
2017-11-25T06:20:02.456Z,1005.87
2017-11-25T06:21:02.457Z,1005.90
2017-11-25T06:22:02.451Z,1005.92
2017-11-25T06:23:02.447Z,1005.91
2017-11-25T06:24:02.448Z,1005.90
2017-11-25T06:25:02.452Z,1005.92
2017-11-25T06:26:02.440Z,1005.90
2017-11-25T06:27:02.444Z,1005.90
2017-11-25T06:28:02.440Z,1005.90
2017-11-25T06:29:02.431Z,1005.98
2017-11-25T06:30:02.433Z,1006.02
2017-11-25T06:31:02.432Z,1006.01
2017-11-25T06:32:02.432Z,1006.02
2017-11-25T06:33:02.424Z,1006.02
2017-11-25T06:34:02.424Z,1006.02
2017-11-25T06:35:02.425Z,1006.06
2017-11-25T06:36:02.424Z,1006.05
2017-11-25T06:37:02.422Z,1006.03
2017-11-25T06:38:02.416Z,1006.05
2017-11-25T06:39:02.414Z,1006.02
2017-11-25T06:40:02.413Z,1006.04
2017-11-25T06:41:02.410Z,1006.01
2017-11-25T06:42:02.410Z,1006.04
2017-11-25T06:43:02.409Z,1006.02
2017-11-25T06:44:02.400Z,1006.08
2017-11-25T06:45:02.402Z,1006.08
2017-11-25T06:46:02.404Z,1006.12
2017-11-25T06:47:02.403Z,1006.10
2017-11-25T06:48:02.393Z,1006.13
2017-11-25T06:49:02.394Z,1006.18
2017-11-25T06:50:02.390Z,1006.20
2017-11-25T06:51:02.386Z,1006.16
2017-11-25T06:52:02.386Z,1006.16
2017-11-25T06:53:02.384Z,1006.15
2017-11-25T06:54:02.385Z,1006.12
2017-11-25T06:55:02.383Z,1006.17
2017-11-25T06:56:02.379Z,1006.12
2017-11-25T06:57:02.372Z,1006.15
2017-11-25T06:58:02.371Z,1006.11
2017-11-25T06:59:02.372Z,1006.12
2017-11-25T07:00:02.379Z,1006.10
2017-11-25T07:01:02.365Z,1006.03
2017-11-25T07:02:02.364Z,1006.02
2017-11-25T07:03:02.367Z,1006.05
2017-11-25T07:04:02.363Z,1006.04
2017-11-25T07:05:02.358Z,1006.05
2017-11-25T07:06:02.366Z,1005.98
2017-11-25T07:07:02.355Z,1006.01
2017-11-25T07:08:02.354Z,1005.98
2017-11-25T07:09:02.347Z,1006.01
2017-11-25T07:10:02.348Z,1005.93
2017-11-25T07:11:02.346Z,1005.94
2017-11-25T07:12:02.345Z,1005.97
2017-11-25T07:13:02.348Z,1005.96
2017-11-25T07:14:02.340Z,1005.92
2017-11-25T07:15:02.334Z,1005.90
2017-11-25T07:16:02.346Z,1005.88
2017-11-25T07:17:02.338Z,1005.87
2017-11-25T07:18:02.333Z,1005.87
2017-11-25T07:19:02.326Z,1005.85
2017-11-25T07:20:02.331Z,1005.86
2017-11-25T07:21:02.323Z,1005.84
2017-11-25T07:22:02.322Z,1005.81
2017-11-25T07:23:02.318Z,1005.80
2017-11-25T07:24:02.315Z,1005.80
2017-11-25T07:25:02.313Z,1005.76
2017-11-25T07:26:02.315Z,1005.78
2017-11-25T07:27:02.310Z,1005.74
2017-11-25T07:28:02.307Z,1005.77
2017-11-25T07:29:02.307Z,1005.74
2017-11-25T07:30:02.315Z,1005.77
2017-11-25T07:31:02.308Z,1005.77
2017-11-25T07:32:02.296Z,1005.79
2017-11-25T07:33:02.294Z,1005.83
2017-11-25T07:34:02.302Z,1005.81
2017-11-25T07:35:02.293Z,1005.84
2017-11-25T07:36:02.292Z,1005.82
2017-11-25T07:37:02.286Z,1005.80
2017-11-25T07:38:02.285Z,1005.84
2017-11-25T07:39:02.291Z,1005.75
2017-11-25T07:40:02.279Z,1005.76
2017-11-25T07:41:02.279Z,1005.77
2017-11-25T07:42:02.275Z,1005.77
2017-11-25T07:43:02.276Z,1005.75
2017-11-25T07:44:02.276Z,1005.80
2017-11-25T07:45:02.275Z,1005.80
2017-11-25T07:46:02.272Z,1005.81
2017-11-25T07:47:02.262Z,1005.82
2017-11-25T07:48:02.262Z,1005.74
2017-11-25T07:49:02.263Z,1005.70
2017-11-25T07:50:02.260Z,1005.68
2017-11-25T07:51:02.256Z,1005.73
2017-11-25T07:52:02.256Z,1005.74
2017-11-25T07:53:02.252Z,1005.76
2017-11-25T07:54:02.250Z,1005.78
2017-11-25T07:55:02.247Z,1005.71
2017-11-25T07:56:02.245Z,1005.73
2017-11-25T07:57:02.245Z,1005.71
2017-11-25T07:58:02.242Z,1005.71
2017-11-25T07:59:02.239Z,1005.75
2017-11-25T08:00:02.241Z,1005.74
2017-11-25T08:01:02.240Z,1005.75
2017-11-25T08:02:02.232Z,1005.69
2017-11-25T08:03:02.233Z,1005.70
2017-11-25T08:04:02.231Z,1005.69
2017-11-25T08:05:02.231Z,1005.68
2017-11-25T08:06:02.225Z,1005.68
2017-11-25T08:07:02.263Z,1005.68
2017-11-25T08:08:02.216Z,1005.68
2017-11-25T08:09:02.226Z,1005.65
2017-11-25T08:10:02.214Z,1005.64
2017-11-25T08:11:02.213Z,1005.63
2017-11-25T08:12:02.210Z,1005.65
2017-11-25T08:13:02.212Z,1005.65
2017-11-25T08:14:02.210Z,1005.69
2017-11-25T08:15:02.223Z,1005.64
2017-11-25T08:16:02.202Z,1005.64
2017-11-25T08:17:02.202Z,1005.61
2017-11-25T08:18:02.195Z,1005.63
2017-11-25T08:19:02.196Z,1005.65
2017-11-25T08:20:02.205Z,1005.66
2017-11-25T08:21:02.192Z,1005.69
2017-11-25T08:22:02.190Z,1005.73
2017-11-25T08:23:02.185Z,1005.71
2017-11-25T08:24:02.184Z,1005.73
2017-11-25T08:25:02.192Z,1005.68
2017-11-25T08:26:02.181Z,1005.63
2017-11-25T08:27:02.174Z,1005.63
2017-11-25T08:28:02.173Z,1005.61
2017-11-25T08:29:02.174Z,1005.61
2017-11-25T08:30:02.175Z,1005.62
2017-11-25T08:31:02.171Z,1005.64
2017-11-25T08:32:02.164Z,1005.69
2017-11-25T08:33:02.167Z,1005.67
2017-11-25T08:34:02.158Z,1005.71
2017-11-25T08:35:02.162Z,1005.71
2017-11-25T08:36:02.158Z,1005.75
2017-11-25T08:37:02.156Z,1005.81
2017-11-25T08:38:02.152Z,1005.84
2017-11-25T08:39:02.147Z,1005.87
2017-11-25T08:40:02.145Z,1005.93
2017-11-25T08:41:02.147Z,1005.93
2017-11-25T08:42:02.144Z,1005.91
2017-11-25T08:43:02.146Z,1005.91
2017-11-25T08:44:02.137Z,1005.87
2017-11-25T08:45:02.142Z,1005.90
2017-11-25T08:46:02.131Z,1005.91
2017-11-25T08:47:02.131Z,1005.95
2017-11-25T08:48:02.132Z,1005.94
2017-11-25T08:49:02.128Z,1005.96
2017-11-25T08:50:02.125Z,1005.96
2017-11-25T08:51:03.556Z,1006.00
2017-11-25T08:52:02.527Z,1005.99
2017-11-25T08:53:02.540Z,1005.96
2017-11-25T08:54:02.123Z,1006.00
2017-11-25T08:55:02.115Z,1005.96
2017-11-25T08:56:02.116Z,1005.91
2017-11-25T08:57:02.108Z,1005.94
2017-11-25T08:58:02.102Z,1005.94
2017-11-25T08:59:02.103Z,1005.95
2017-11-25T09:00:02.101Z,1005.95
2017-11-25T09:01:02.099Z,1006.02
2017-11-25T09:02:02.097Z,1006.01
2017-11-25T09:03:02.093Z,1006.00
2017-11-25T09:04:02.097Z,1006.01
2017-11-25T09:05:02.091Z,1005.98
2017-11-25T09:06:02.089Z,1006.00
2017-11-25T09:07:02.094Z,1006.01
2017-11-25T09:08:02.086Z,1006.03
2017-11-25T09:09:02.079Z,1006.00
2017-11-25T09:10:02.080Z,1005.96
2017-11-25T09:11:02.072Z,1005.94
2017-11-25T09:12:02.072Z,1005.92
2017-11-25T09:13:02.075Z,1005.91
2017-11-25T09:14:02.064Z,1005.98
2017-11-25T09:15:02.066Z,1005.93
2017-11-25T09:16:02.059Z,1005.90
2017-11-25T09:17:02.071Z,1005.90
2017-11-25T09:18:02.058Z,1005.92
2017-11-25T09:19:02.058Z,1005.96
2017-11-25T09:20:02.065Z,1005.98
2017-11-25T09:21:02.051Z,1006.03
2017-11-25T09:22:02.052Z,1006.03
2017-11-25T09:23:02.061Z,1006.04
2017-11-25T09:24:02.045Z,1006.03
2017-11-25T09:25:02.045Z,1006.01
2017-11-25T09:26:02.037Z,1006.03
2017-11-25T09:27:02.036Z,1005.99
2017-11-25T09:28:02.035Z,1006.01
2017-11-25T09:29:02.034Z,1005.98
2017-11-25T09:30:02.027Z,1005.95
2017-11-25T09:31:02.027Z,1005.97
2017-11-25T09:32:02.028Z,1005.98
2017-11-25T09:33:02.029Z,1005.96
2017-11-25T09:34:02.021Z,1005.95
2017-11-25T09:35:02.026Z,1005.97
2017-11-25T09:36:02.020Z,1005.95
2017-11-25T09:37:02.012Z,1005.94
2017-11-25T09:38:02.015Z,1005.94
2017-11-25T09:39:02.006Z,1005.92
2017-11-25T09:40:02.007Z,1005.92
2017-11-25T09:41:02.006Z,1005.92
2017-11-25T09:42:01.998Z,1005.91
2017-11-25T09:43:02.002Z,1005.92
2017-11-25T09:44:02.001Z,1005.98
2017-11-25T09:45:01.999Z,1005.99
2017-11-25T09:46:01.991Z,1006.06
2017-11-25T09:47:01.991Z,1006.05
2017-11-25T09:48:02.001Z,1006.06
2017-11-25T09:49:01.990Z,1006.04
2017-11-25T09:50:01.981Z,1006.07
2017-11-25T09:51:01.981Z,1006.05
2017-11-25T09:52:01.977Z,1006.02
2017-11-25T09:53:01.980Z,1006.00
2017-11-25T09:54:01.973Z,1006.04
2017-11-25T09:55:01.975Z,1005.99
2017-11-25T09:56:01.971Z,1006.04
2017-11-25T09:57:01.971Z,1006.04
2017-11-25T09:58:01.976Z,1006.00
2017-11-25T09:59:01.980Z,1005.95
2017-11-25T10:00:01.954Z,1005.97
2017-11-25T10:01:01.967Z,1005.93
2017-11-25T10:02:01.953Z,1005.91
2017-11-25T10:03:01.951Z,1005.88
2017-11-25T10:04:01.948Z,1005.91
2017-11-25T10:05:01.950Z,1005.87
2017-11-25T10:06:01.942Z,1005.89
2017-11-25T10:07:01.948Z,1005.86
2017-11-25T10:08:01.946Z,1005.88
2017-11-25T10:09:01.937Z,1005.88
2017-11-25T10:10:01.934Z,1005.90
2017-11-25T10:11:01.930Z,1005.93
2017-11-25T10:12:01.927Z,1005.96
2017-11-25T10:13:01.934Z,1005.95
2017-11-25T10:14:01.927Z,1005.95
2017-11-25T10:15:01.922Z,1005.97
2017-11-25T10:16:01.915Z,1005.96
2017-11-25T10:17:01.916Z,1005.95
2017-11-25T10:18:01.915Z,1005.99
2017-11-25T10:19:01.911Z,1005.94
2017-11-25T10:20:01.906Z,1005.92
2017-11-25T10:21:01.904Z,1005.90
2017-11-25T10:22:01.906Z,1005.91
2017-11-25T10:23:01.894Z,1005.91
2017-11-25T10:24:01.895Z,1005.92
2017-11-25T10:25:01.895Z,1005.95
2017-11-25T10:26:01.889Z,1005.93
2017-11-25T10:27:01.891Z,1005.94
2017-11-25T10:28:01.887Z,1005.96
2017-11-25T10:29:01.881Z,1005.96
2017-11-25T10:30:01.882Z,1005.97
2017-11-25T10:31:01.875Z,1006.01
2017-11-25T10:32:01.875Z,1006.01
2017-11-25T10:33:01.873Z,1005.99
2017-11-25T10:34:01.873Z,1005.99
2017-11-25T10:35:01.868Z,1005.95
2017-11-25T10:36:01.866Z,1005.89
2017-11-25T10:37:01.891Z,1005.90
2017-11-25T10:38:01.863Z,1005.86
2017-11-25T10:39:01.859Z,1005.89
2017-11-25T10:40:01.853Z,1005.93
2017-11-25T10:41:01.861Z,1005.97
2017-11-25T10:42:01.852Z,1005.93
2017-11-25T10:43:01.852Z,1005.94
2017-11-25T10:44:01.845Z,1005.92
2017-11-25T10:45:01.851Z,1005.88
2017-11-25T10:46:01.846Z,1005.87
2017-11-25T10:47:01.842Z,1005.83
2017-11-25T10:48:01.834Z,1005.82
2017-11-25T10:49:01.838Z,1005.82
2017-11-25T10:50:01.829Z,1005.82
2017-11-25T10:51:01.828Z,1005.81
2017-11-25T10:52:01.835Z,1005.81
2017-11-25T10:53:01.825Z,1005.81
2017-11-25T10:54:01.824Z,1005.79
2017-11-25T10:55:01.822Z,1005.79
2017-11-25T10:56:01.816Z,1005.79
2017-11-25T10:57:01.822Z,1005.72
2017-11-25T10:58:01.816Z,1005.76
2017-11-25T10:59:01.810Z,1005.75
2017-11-25T11:00:01.810Z,1005.76
2017-11-25T11:01:01.810Z,1005.74
2017-11-25T11:02:01.800Z,1005.73
2017-11-25T11:03:01.803Z,1005.74
2017-11-25T11:04:01.804Z,1005.73
2017-11-25T11:05:01.809Z,1005.72
2017-11-25T11:06:01.798Z,1005.74
2017-11-25T11:07:01.791Z,1005.77
2017-11-25T11:08:01.791Z,1005.76
2017-11-25T11:09:01.790Z,1005.76
2017-11-25T11:10:01.792Z,1005.71
2017-11-25T11:11:01.786Z,1005.76
2017-11-25T11:12:01.787Z,1005.77
2017-11-25T11:13:01.784Z,1005.79
2017-11-25T11:14:01.775Z,1005.74
2017-11-25T11:15:01.775Z,1005.72
2017-11-25T11:16:01.775Z,1005.77
2017-11-25T11:17:01.770Z,1005.73
2017-11-25T11:18:01.765Z,1005.75
2017-11-25T11:19:01.765Z,1005.72
2017-11-25T11:20:01.761Z,1005.72
2017-11-25T11:21:01.764Z,1005.75
2017-11-25T11:22:01.758Z,1005.76
2017-11-25T11:23:01.756Z,1005.74
2017-11-25T11:24:01.755Z,1005.79
2017-11-25T11:25:01.749Z,1005.75
2017-11-25T11:26:01.750Z,1005.78
2017-11-25T11:27:01.745Z,1005.82
2017-11-25T11:28:01.745Z,1005.79
2017-11-25T11:29:01.745Z,1005.80
2017-11-25T11:30:01.769Z,1005.79
2017-11-25T11:31:01.741Z,1005.82
2017-11-25T11:32:01.736Z,1005.84
2017-11-25T11:33:01.735Z,1005.85
2017-11-25T11:34:01.734Z,1005.89
2017-11-25T11:35:01.728Z,1005.86
2017-11-25T11:36:01.729Z,1005.90
2017-11-25T11:37:01.735Z,1005.86
2017-11-25T11:38:01.756Z,1005.90
2017-11-25T11:39:01.725Z,1005.83
2017-11-25T11:40:01.719Z,1005.86
2017-11-25T11:41:01.721Z,1005.85
2017-11-25T11:42:01.723Z,1005.83
2017-11-25T11:43:01.729Z,1005.83
2017-11-25T11:44:01.706Z,1005.82
2017-11-25T11:45:01.712Z,1005.84
2017-11-25T11:46:01.713Z,1005.80
2017-11-25T11:47:01.706Z,1005.79
2017-11-25T11:48:01.705Z,1005.79
2017-11-25T11:49:01.714Z,1005.80
2017-11-25T11:50:01.695Z,1005.79
2017-11-25T11:51:01.694Z,1005.78
2017-11-25T11:52:01.706Z,1005.77
2017-11-25T11:53:01.695Z,1005.80
2017-11-25T11:54:01.696Z,1005.83
2017-11-25T11:55:01.691Z,1005.81
2017-11-25T11:56:01.689Z,1005.83
2017-11-25T11:57:01.684Z,1005.86
2017-11-25T11:58:01.687Z,1005.84
2017-11-25T11:59:01.679Z,1005.88
2017-11-25T12:00:01.680Z,1005.85
2017-11-25T12:01:01.677Z,1005.84
2017-11-25T12:02:01.676Z,1005.81
2017-11-25T12:03:01.672Z,1005.79
2017-11-25T12:04:01.672Z,1005.79
2017-11-25T12:05:01.674Z,1005.80